Time,TemperatureF,DewpointF,PressureIn,WindDirection,WindDirectionDegrees,WindSpeedMPH,WindSpeedGustMPH,Humidity,HourlyPrecipIn,Conditions,Clouds,dailyrainin,SolarRadiationWatts/m^2,SoftwareType,DateUTC
2013-04-13 00:14:00,39.0,38.0,-100.00,South,169,1.0,8.0,95,0.17,,,0.43,0.000000,,2013-04-13 07:14:00,
2013-04-13 00:23:00,39.0,38.0,-100.00,South,169,1.0,8.0,95,0.17,,,0.43,0.000000,,2013-04-13 07:23:00,
2013-04-13 00:33:00,39.0,38.0,-100.00,South,169,1.0,8.0,95,0.17,,,0.43,0.000000,,2013-04-13 07:33:00,
2013-04-13 00:43:00,39.0,38.0,-100.00,South,169,1.0,8.0,95,0.17,,,0.43,0.000000,,2013-04-13 07:43:00,
2013-04-13 00:52:00,37.0,36.0,-100.00,NE,52,0.0,4.0,97,0.12,,,0.55,0.000000,,2013-04-13 07:52:00,
2013-04-13 01:14:00,37.0,36.0,-100.00,NE,52,0.0,4.0,97,0.12,,,0.55,0.000000,,2013-04-13 08:14:00,
2013-04-13 01:24:00,37.0,36.0,-100.00,NE,52,0.0,4.0,97,0.12,,,0.55,0.000000,,2013-04-13 08:24:00,
2013-04-13 01:33:00,37.0,36.0,-100.00,NE,52,0.0,4.0,97,0.12,,,0.55,0.000000,,2013-04-13 08:33:00,
2013-04-13 01:44:00,37.0,36.0,-100.00,NE,52,0.0,4.0,97,0.12,,,0.55,0.000000,,2013-04-13 08:44:00,
2013-04-13 01:52:00,37.0,36.0,-100.00,North,10,0.0,3.0,97,0.11,,,0.66,0.000000,,2013-04-13 08:52:00,
2013-04-13 02:14:00,37.0,36.0,-100.00,North,10,0.0,3.0,97,0.11,,,0.66,0.000000,,2013-04-13 09:14:00,
2013-04-13 02:23:00,37.0,36.0,-100.00,North,10,0.0,3.0,97,0.11,,,0.66,0.000000,,2013-04-13 09:23:00,
2013-04-13 02:34:00,37.0,36.0,-100.00,North,10,0.0,3.0,97,0.11,,,0.66,0.000000,,2013-04-13 09:34:00,
2013-04-13 02:45:00,37.0,36.0,-100.00,North,10,0.0,3.0,97,0.11,,,0.66,0.000000,,2013-04-13 09:45:00,
2013-04-13 02:52:00,37.0,36.0,-100.00,North,351,0.0,4.0,97,0.01,,,0.67,0.000000,,2013-04-13 09:52:00,
2013-04-13 03:15:00,37.0,36.0,-100.00,North,351,0.0,4.0,97,0.01,,,0.67,0.000000,,2013-04-13 10:15:00,
2013-04-13 03:23:00,37.0,36.0,-100.00,North,351,0.0,4.0,97,0.01,,,0.67,0.000000,,2013-04-13 10:23:00,
2013-04-13 03:35:00,37.0,36.0,-100.00,North,351,0.0,4.0,97,0.01,,,0.67,0.000000,,2013-04-13 10:35:00,
2013-04-13 03:44:00,37.0,36.0,-100.00,North,351,0.0,4.0,97,0.01,,,0.67,0.000000,,2013-04-13 10:44:00,
2013-04-13 03:52:00,37.0,36.0,-100.00,SSE,148,1.0,6.0,96,0.10,,,0.77,0.000000,,2013-04-13 10:52:00,
2013-04-13 04:13:00,37.0,36.0,-100.00,SSE,148,1.0,6.0,96,0.10,,,0.77,0.000000,,2013-04-13 11:13:00,
2013-04-13 04:23:00,37.0,36.0,-100.00,SSE,148,1.0,6.0,96,0.10,,,0.77,0.000000,,2013-04-13 11:23:00,
2013-04-13 04:33:00,37.0,36.0,-100.00,SSE,148,1.0,6.0,96,0.10,,,0.77,0.000000,,2013-04-13 11:33:00,
2013-04-13 04:43:00,37.0,36.0,-100.00,SSE,148,1.0,6.0,96,0.10,,,0.77,0.000000,,2013-04-13 11:43:00,
2013-04-13 04:52:00,36.0,35.0,-100.00,SW,225,0.0,9.0,98,0.02,,,0.79,0.000000,,2013-04-13 11:52:00,
2013-04-13 05:23:00,36.0,35.0,-100.00,SW,225,0.0,9.0,98,0.02,,,0.79,0.000000,,2013-04-13 12:23:00,
2013-04-13 05:34:00,36.0,35.0,-100.00,SW,225,0.0,9.0,98,0.02,,,0.79,0.000000,,2013-04-13 12:34:00,
2013-04-13 05:45:00,36.0,35.0,-100.00,SW,225,0.0,9.0,98,0.02,,,0.79,0.000000,,2013-04-13 12:45:00,
2013-04-13 05:52:00,37.0,36.0,-100.00,SW,222,1.0,7.0,98,0.00,,,0.79,0.000000,,2013-04-13 12:52:00,
2013-04-13 06:24:00,37.0,36.0,-100.00,SW,222,1.0,7.0,98,0.00,,,0.79,0.000000,,2013-04-13 13:24:00,
2013-04-13 06:33:00,37.0,36.0,-100.00,SW,222,1.0,7.0,98,0.00,,,0.79,0.000000,,2013-04-13 13:33:00,
2013-04-13 06:45:00,37.0,36.0,-100.00,SW,222,1.0,7.0,98,0.00,,,0.79,0.000000,,2013-04-13 13:45:00,
2013-04-13 06:52:00,35.0,33.0,-100.00,NE,52,2.0,9.0,92,0.00,,,0.79,11.000000,,2013-04-13 13:52:00,
2013-04-13 07:23:00,35.0,33.0,-100.00,NE,52,2.0,9.0,92,0.00,,,0.79,11.000000,,2013-04-13 14:23:00,
2013-04-13 07:35:00,35.0,33.0,-100.00,NE,52,2.0,9.0,92,0.00,,,0.79,11.000000,,2013-04-13 14:35:00,
2013-04-13 07:44:00,35.0,33.0,-100.00,NE,52,2.0,9.0,92,0.00,,,0.79,11.000000,,2013-04-13 14:44:00,
2013-04-13 07:52:00,34.0,30.0,-100.00,SSE,160,4.0,14.0,84,0.00,,,0.79,29.000000,,2013-04-13 14:52:00,
2013-04-13 08:26:00,34.0,30.0,-100.00,SSE,160,4.0,14.0,84,0.00,,,0.79,29.000000,,2013-04-13 15:26:00,
2013-04-13 08:34:00,34.0,30.0,-100.00,SSE,160,4.0,14.0,84,0.00,,,0.79,29.000000,,2013-04-13 15:34:00,
2013-04-13 08:43:00,34.0,30.0,-100.00,SSE,160,4.0,14.0,84,0.00,,,0.79,29.000000,,2013-04-13 15:43:00,
2013-04-13 08:52:00,33.0,28.0,-100.00,SSE,149,3.0,17.0,82,0.00,,,-99.99,101.000000,,2013-04-13 15:52:00,
2013-04-13 09:24:00,33.0,28.0,-100.00,SSE,149,3.0,17.0,82,0.00,,,-99.99,101.000000,,2013-04-13 16:24:00,
2013-04-13 09:34:00,33.0,28.0,-100.00,SSE,149,3.0,17.0,82,0.00,,,-99.99,101.000000,,2013-04-13 16:34:00,
2013-04-13 09:44:00,33.0,28.0,-100.00,SSE,149,3.0,17.0,82,0.00,,,-99.99,101.000000,,2013-04-13 16:44:00,
2013-04-13 09:52:00,35.0,27.0,-100.00,SE,145,3.0,9.0,72,0.00,,,0.79,179.000000,,2013-04-13 16:52:00,
2013-04-13 10:19:00,35.0,27.0,-100.00,SE,145,3.0,9.0,72,0.00,,,0.79,179.000000,,2013-04-13 17:19:00,
2013-04-13 10:35:00,35.0,27.0,-100.00,SE,145,3.0,9.0,72,0.00,,,0.79,179.000000,,2013-04-13 17:35:00,
2013-04-13 10:43:00,35.0,27.0,-100.00,SE,145,3.0,9.0,72,0.00,,,0.79,179.000000,,2013-04-13 17:43:00,
2013-04-13 10:52:00,37.0,28.0,-100.00,NE,56,3.0,15.0,69,0.01,,,0.80,310.000000,,2013-04-13 17:52:00,
2013-04-13 11:24:00,37.0,28.0,-100.00,NE,56,3.0,15.0,69,0.01,,,0.80,310.000000,,2013-04-13 18:24:00,
2013-04-13 11:32:00,37.0,28.0,-100.00,NE,56,3.0,15.0,69,0.01,,,0.80,310.000000,,2013-04-13 18:32:00,
2013-04-13 11:42:00,37.0,28.0,-100.00,NE,56,3.0,15.0,69,0.01,,,0.80,310.000000,,2013-04-13 18:42:00,
2013-04-13 11:52:00,37.0,24.0,-100.00,ENE,76,5.0,15.0,59,0.00,,,0.80,333.000000,,2013-04-13 18:52:00,
2013-04-13 12:22:00,37.0,24.0,-100.00,ENE,76,5.0,15.0,59,0.00,,,0.80,333.000000,,2013-04-13 19:22:00,
2013-04-13 12:32:00,37.0,24.0,-100.00,ENE,76,5.0,15.0,59,0.00,,,0.80,333.000000,,2013-04-13 19:32:00,
2013-04-13 12:42:00,37.0,24.0,-100.00,ENE,76,5.0,15.0,59,0.00,,,0.80,333.000000,,2013-04-13 19:42:00,
2013-04-13 12:52:00,37.0,26.0,-100.00,SE,132,3.0,13.0,63,0.01,,,0.81,354.000000,,2013-04-13 19:52:00,
2013-04-13 13:22:00,37.0,26.0,-100.00,SE,132,3.0,13.0,63,0.01,,,0.81,354.000000,,2013-04-13 20:22:00,
2013-04-13 13:32:00,37.0,26.0,-100.00,SE,132,3.0,13.0,63,0.01,,,0.81,354.000000,,2013-04-13 20:32:00,
2013-04-13 13:42:00,37.0,26.0,-100.00,SE,132,3.0,13.0,63,0.01,,,0.81,354.000000,,2013-04-13 20:42:00,
2013-04-13 13:52:00,40.0,25.0,-100.00,East,101,4.0,21.0,54,0.00,,,0.81,612.000000,,2013-04-13 20:52:00,
2013-04-13 14:12:00,40.0,25.0,-100.00,East,101,4.0,21.0,54,0.00,,,0.81,612.000000,,2013-04-13 21:12:00,
2013-04-13 14:22:00,40.0,25.0,-100.00,East,101,4.0,21.0,54,0.00,,,0.81,612.000000,,2013-04-13 21:22:00,
2013-04-13 14:32:00,40.0,25.0,-100.00,East,101,4.0,21.0,54,0.00,,,0.81,612.000000,,2013-04-13 21:32:00,
2013-04-13 14:43:00,40.0,25.0,-100.00,East,101,4.0,21.0,54,0.00,,,0.81,612.000000,,2013-04-13 21:43:00,
2013-04-13 14:52:00,37.0,23.0,-100.00,East,90,2.0,14.0,56,0.00,,,0.81,177.000000,,2013-04-13 21:52:00,
2013-04-13 15:22:00,37.0,23.0,-100.00,East,90,2.0,14.0,56,0.00,,,0.81,177.000000,,2013-04-13 22:22:00,
2013-04-13 15:33:00,37.0,23.0,-100.00,East,90,2.0,14.0,56,0.00,,,0.81,177.000000,,2013-04-13 22:33:00,
2013-04-13 15:42:00,37.0,23.0,-100.00,East,90,2.0,14.0,56,0.00,,,0.81,177.000000,,2013-04-13 22:42:00,
2013-04-13 15:52:00,37.0,26.0,-100.00,SSE,149,4.0,13.0,64,0.00,,,0.81,240.000000,,2013-04-13 22:52:00,
2013-04-13 16:12:00,37.0,26.0,-100.00,SSE,149,4.0,13.0,64,0.00,,,0.81,240.000000,,2013-04-13 23:12:00,
2013-04-13 16:22:00,37.0,26.0,-100.00,SSE,149,4.0,13.0,64,0.00,,,0.81,240.000000,,2013-04-13 23:22:00,
2013-04-13 16:32:00,37.0,26.0,-100.00,SSE,149,4.0,13.0,64,0.00,,,0.81,240.000000,,2013-04-13 23:32:00,
2013-04-13 16:41:00,37.0,26.0,-100.00,SSE,149,4.0,13.0,64,0.00,,,0.81,240.000000,,2013-04-13 23:41:00,
2013-04-13 16:52:00,33.0,31.0,-100.00,East,98,0.0,12.0,91,0.00,,,0.81,60.000000,,2013-04-13 23:52:00,
2013-04-13 17:12:00,33.0,31.0,-100.00,East,98,0.0,12.0,91,0.00,,,0.81,60.000000,,2013-04-14 00:12:00,
2013-04-13 17:22:00,33.0,31.0,-100.00,East,98,0.0,12.0,91,0.00,,,0.81,60.000000,,2013-04-14 00:22:00,
2013-04-13 17:32:00,33.0,31.0,-100.00,East,98,0.0,12.0,91,0.00,,,0.81,60.000000,,2013-04-14 00:32:00,
2013-04-13 17:42:00,33.0,31.0,-100.00,East,98,0.0,12.0,91,0.00,,,0.81,60.000000,,2013-04-14 00:42:00,
2013-04-13 17:52:00,33.0,31.0,-100.00,WNW,288,1.0,4.0,93,0.00,,,0.81,16.000000,,2013-04-14 00:52:00,
2013-04-13 18:12:00,33.0,31.0,-100.00,WNW,288,1.0,4.0,93,0.00,,,0.81,16.000000,,2013-04-14 01:12:00,
2013-04-13 18:22:00,33.0,31.0,-100.00,WNW,288,1.0,4.0,93,0.00,,,0.81,16.000000,,2013-04-14 01:22:00,
2013-04-13 18:32:00,33.0,31.0,-100.00,WNW,288,1.0,4.0,93,0.00,,,0.81,16.000000,,2013-04-14 01:32:00,
2013-04-13 18:42:00,33.0,31.0,-100.00,WNW,288,1.0,4.0,93,0.00,,,0.81,16.000000,,2013-04-14 01:42:00,
2013-04-13 18:52:00,33.0,32.0,-100.00,NNW,330,2.0,4.0,95,0.00,,,0.81,2.000000,,2013-04-14 01:52:00,
2013-04-13 19:22:00,33.0,32.0,-100.00,NNW,330,2.0,4.0,95,0.00,,,0.81,2.000000,,2013-04-14 02:22:00,
2013-04-13 19:32:00,33.0,32.0,-100.00,NNW,330,2.0,4.0,95,0.00,,,0.81,2.000000,,2013-04-14 02:32:00,
2013-04-13 19:42:00,33.0,32.0,-100.00,NNW,330,2.0,4.0,95,0.00,,,0.81,2.000000,,2013-04-14 02:42:00,
2013-04-13 19:52:00,32.0,31.0,-100.00,NNE,32,0.0,6.0,96,0.00,,,0.81,0.000000,,2013-04-14 02:52:00,
2013-04-13 20:12:00,32.0,31.0,-100.00,NNE,32,0.0,6.0,96,0.00,,,0.81,0.000000,,2013-04-14 03:12:00,
2013-04-13 20:22:00,32.0,31.0,-100.00,NNE,32,0.0,6.0,96,0.00,,,0.81,0.000000,,2013-04-14 03:22:00,
2013-04-13 20:33:00,32.0,31.0,-100.00,NNE,32,0.0,6.0,96,0.00,,,0.81,0.000000,,2013-04-14 03:33:00,
2013-04-13 20:42:00,32.0,31.0,-100.00,NNE,32,0.0,6.0,96,0.00,,,0.81,0.000000,,2013-04-14 03:42:00,
2013-04-13 20:52:00,32.0,31.0,-100.00,SE,145,0.0,4.0,96,0.00,,,0.77,0.000000,,2013-04-14 03:52:00,
2013-04-13 21:22:00,32.0,31.0,-100.00,SE,145,0.0,4.0,96,0.00,,,0.77,0.000000,,2013-04-14 04:22:00,
2013-04-13 21:32:00,32.0,31.0,-100.00,SE,145,0.0,4.0,96,0.00,,,0.77,0.000000,,2013-04-14 04:32:00,
2013-04-13 21:42:00,32.0,31.0,-100.00,SE,145,0.0,4.0,96,0.00,,,0.77,0.000000,,2013-04-14 04:42:00,
2013-04-13 21:52:00,32.0,31.0,-100.00,NE,45,1.0,3.0,97,0.00,,,0.70,0.000000,,2013-04-14 04:52:00,
2013-04-13 22:12:00,32.0,31.0,-100.00,NE,45,1.0,3.0,97,0.00,,,0.70,0.000000,,2013-04-14 05:12:00,
2013-04-13 22:22:00,32.0,31.0,-100.00,NE,45,1.0,3.0,97,0.00,,,0.70,0.000000,,2013-04-14 05:22:00,
2013-04-13 22:32:00,32.0,31.0,-100.00,NE,45,1.0,3.0,97,0.00,,,0.70,0.000000,,2013-04-14 05:32:00,
2013-04-13 22:42:00,32.0,31.0,-100.00,NE,45,1.0,3.0,97,0.00,,,0.70,0.000000,,2013-04-14 05:42:00,
2013-04-13 22:52:00,32.0,31.0,-100.00,South,178,0.0,0.0,97,0.00,,,0.55,0.000000,,2013-04-14 05:52:00,
2013-04-13 23:22:00,32.0,31.0,-100.00,South,178,0.0,0.0,97,0.00,,,0.55,0.000000,,2013-04-14 06:22:00,
2013-04-13 23:32:00,32.0,31.0,-100.00,South,178,0.0,0.0,97,0.00,,,0.55,0.000000,,2013-04-14 06:32:00,
2013-04-13 23:42:00,32.0,31.0,-100.00,South,178,0.0,0.0,97,0.00,,,0.55,0.000000,,2013-04-14 06:42:00,
2013-04-13 23:52:00,32.0,32.0,-100.00,NE,43,0.0,0.0,98,0.00,,,0.38,0.000000,,2013-04-14 06:52:00,